createdAt,value
2018-05-19T00:00:51.009Z,8.20
2018-05-19T00:03:20.783Z,9.30
2018-05-19T00:05:49.467Z,8.17
2018-05-19T00:08:17.718Z,10.83
2018-05-19T00:10:46.806Z,8.83
2018-05-19T00:13:15.737Z,7.67
2018-05-19T00:15:44.945Z,9.90
2018-05-19T00:18:14.117Z,8.17
2018-05-19T00:20:43.653Z,8.50
2018-05-19T00:23:13.607Z,7.60
2018-05-19T00:25:43.014Z,8.30
2018-05-19T00:28:12.452Z,9.53
2018-05-19T00:30:41.143Z,7.30
2018-05-19T00:33:10.132Z,11.53
2018-05-19T00:35:40.580Z,8.30
2018-05-19T00:38:09.708Z,9.20
2018-05-19T00:40:39.324Z,10.90
2018-05-19T00:43:08.286Z,10.93
2018-05-19T00:45:37.627Z,12.83
2018-05-19T00:48:05.734Z,8.87
2018-05-19T00:50:35.411Z,8.57
2018-05-19T00:53:05.672Z,11.93
2018-05-19T00:55:34.153Z,9.73
2018-05-19T00:58:02.641Z,10.57
2018-05-19T01:00:31.663Z,12.50
2018-05-19T01:03:00.072Z,10.17
2018-05-19T01:05:29.444Z,10.83
2018-05-19T01:07:58.563Z,11.80
2018-05-19T01:10:27.313Z,11.70
2018-05-19T01:12:55.787Z,11.83
2018-05-19T01:15:23.525Z,11.00
2018-05-19T01:17:52.993Z,9.50
2018-05-19T01:20:21.965Z,8.97
2018-05-19T01:22:49.984Z,11.90
2018-05-19T01:25:18.817Z,10.87
2018-05-19T01:27:47.687Z,9.57
2018-05-19T01:30:17.323Z,9.27
2018-05-19T01:32:47.111Z,8.50
2018-05-19T01:35:15.717Z,11.50
2018-05-19T01:37:45.577Z,11.33
2018-05-19T01:40:15.163Z,13.03
2018-05-19T01:42:44.902Z,11.23
2018-05-19T01:45:13.990Z,8.93
2018-05-19T01:47:42.799Z,9.37
2018-05-19T01:50:11.515Z,9.50
2018-05-19T01:52:40.297Z,9.30
2018-05-19T01:55:07.854Z,9.00
2018-05-19T01:57:36.050Z,8.90
2018-05-19T02:00:06.652Z,9.70
2018-05-19T02:02:35.065Z,15.10
2018-05-19T02:05:05.918Z,8.80
2018-05-19T02:07:36.067Z,7.70
2018-05-19T02:10:04.765Z,8.63
2018-05-19T02:12:32.669Z,11.27
2018-05-19T02:15:01.823Z,9.73
2018-05-19T02:17:30.952Z,10.63
2018-05-19T02:20:00.632Z,10.33
2018-05-19T02:22:28.234Z,10.57
2018-05-19T02:24:57.209Z,9.37
2018-05-19T02:27:25.501Z,8.63
2018-05-19T02:29:53.932Z,8.60
2018-05-19T02:32:22.663Z,10.50
2018-05-19T02:34:52.582Z,11.53
2018-05-19T02:37:21.391Z,11.10
2018-05-19T02:39:50.728Z,11.13
2018-05-19T02:42:20.630Z,13.93
2018-05-19T02:44:51.530Z,9.60
2018-05-19T02:47:20.399Z,9.90
2018-05-19T02:49:49.597Z,9.87
2018-05-19T02:52:19.922Z,10.10
2018-05-19T02:54:48.823Z,12.67
2018-05-19T02:57:17.955Z,12.20
2018-05-19T02:59:45.850Z,14.33
2018-05-19T03:02:15.026Z,14.87
2018-05-19T03:04:42.629Z,10.30
2018-05-19T03:07:10.169Z,18.20
2018-05-19T03:09:38.573Z,16.60
2018-05-19T03:12:09.063Z,11.97
2018-05-19T03:14:36.650Z,15.83
2018-05-19T03:17:04.359Z,15.37
2018-05-19T03:19:35.116Z,13.10
2018-05-19T03:22:06.008Z,14.00
2018-05-19T03:24:34.639Z,18.03
2018-05-19T03:27:03.783Z,14.00
2018-05-19T03:29:32.146Z,13.73
2018-05-19T03:32:00.617Z,18.10
2018-05-19T03:34:29.895Z,14.43
2018-05-19T03:36:59.404Z,12.80
2018-05-19T03:39:28.505Z,15.23
2018-05-19T03:41:57.839Z,19.90
2018-05-19T03:44:27.433Z,19.27
2018-05-19T03:46:56.247Z,23.03
2018-05-19T03:49:25.813Z,18.93
2018-05-19T03:51:55.258Z,12.77
2018-05-19T03:54:23.460Z,16.20
2018-05-19T03:56:52.025Z,14.90
2018-05-19T03:59:32.243Z,16.07
2018-05-19T04:05:03.526Z,18.00
2018-05-19T04:07:32.156Z,22.00
2018-05-19T04:10:00.192Z,15.00
2018-05-19T04:12:29.001Z,19.40
2018-05-19T04:14:57.269Z,22.03
2018-05-19T04:17:27.114Z,24.50
2018-05-19T04:19:55.160Z,17.77
2018-05-19T04:22:23.644Z,21.00
2018-05-19T04:24:52.037Z,19.53
2018-05-19T04:27:20.692Z,19.37
2018-05-19T04:29:49.863Z,17.10
2018-05-19T04:41:59.108Z,27.47
2018-05-19T04:44:28.011Z,30.53
2018-05-19T04:46:56.523Z,24.50
2018-05-19T04:49:25.438Z,28.13
2018-05-19T04:51:54.223Z,24.40
2018-05-19T04:54:23.327Z,23.47
2018-05-19T04:56:53.568Z,28.33
2018-05-19T04:59:22.604Z,23.97
2018-05-19T05:01:51.973Z,26.53
2018-05-19T05:04:20.826Z,32.27
2018-05-19T05:06:49.713Z,27.37
2018-05-19T05:09:20.007Z,27.33
2018-05-19T05:11:48.631Z,29.93
2018-05-19T05:14:18.408Z,33.50
2018-05-19T05:16:47.467Z,34.23
2018-05-19T05:19:16.671Z,32.00
2018-05-19T05:21:46.441Z,36.03
2018-05-19T05:24:15.778Z,26.13
2018-05-19T05:26:45.684Z,26.10
2018-05-19T05:29:15.303Z,28.77
2018-05-19T05:31:44.819Z,31.30
2018-05-19T05:34:13.021Z,30.43
2018-05-19T05:36:42.661Z,25.43
2018-05-19T05:39:11.570Z,27.90
2018-05-19T05:41:39.622Z,28.03
2018-05-19T05:44:08.748Z,23.63
2018-05-19T05:46:38.831Z,28.87
2018-05-19T05:49:08.333Z,27.47
2018-05-19T05:51:36.893Z,25.27
2018-05-19T05:54:05.092Z,25.73
2018-05-19T05:56:35.450Z,24.03
2018-05-19T05:59:03.112Z,23.50
2018-05-19T06:01:33.410Z,18.83
2018-05-19T06:04:02.857Z,26.20
2018-05-19T06:06:32.209Z,20.17
2018-05-19T06:09:01.781Z,18.27
2018-05-19T06:11:29.974Z,21.57
2018-05-19T06:14:01.293Z,19.33
2018-05-19T06:16:31.243Z,19.53
2018-05-19T06:21:34.463Z,21.00
2018-05-19T06:24:04.510Z,22.03
2018-05-19T06:26:33.638Z,35.27
2018-05-19T06:29:03.729Z,23.93
2018-05-19T06:31:32.480Z,21.73
2018-05-19T06:34:00.949Z,17.03
2018-05-19T06:36:28.562Z,20.37
2018-05-19T06:38:56.404Z,25.63
2018-05-19T06:41:24.888Z,20.50
2018-05-19T06:43:55.141Z,20.10
2018-05-19T06:46:23.775Z,21.87
2018-05-19T06:48:52.844Z,19.47
2018-05-19T06:51:21.815Z,22.00
2018-05-19T06:53:50.309Z,21.40
2018-05-19T06:56:20.018Z,19.03
2018-05-19T06:58:49.143Z,21.43
2018-05-19T07:01:17.292Z,26.67
2018-05-19T07:03:46.513Z,23.13
2018-05-19T07:06:15.655Z,24.17
2018-05-19T07:08:44.302Z,27.60
2018-05-19T07:11:14.710Z,25.83
2018-05-19T07:13:46.888Z,20.63
2018-05-19T07:16:16.678Z,23.67
2018-05-19T07:18:45.443Z,25.10
2018-05-19T07:21:14.516Z,25.20
2018-05-19T07:23:46.054Z,23.23
2018-05-19T07:26:15.315Z,20.57
2018-05-19T07:28:43.496Z,19.30
2018-05-19T07:31:11.947Z,28.53
2018-05-19T07:33:41.179Z,26.40
2018-05-19T07:36:10.268Z,22.87
2018-05-19T07:38:38.872Z,25.80
2018-05-19T07:41:06.903Z,20.30
2018-05-19T07:43:35.765Z,28.90
2018-05-19T07:46:06.395Z,26.77
2018-05-19T07:48:35.862Z,24.83
2018-05-19T07:51:05.127Z,31.47
2018-05-19T07:53:33.428Z,28.13
2018-05-19T07:56:03.369Z,29.03
2018-05-19T07:58:35.355Z,22.80
2018-05-19T08:01:05.330Z,21.90
2018-05-19T08:03:35.055Z,25.40
2018-05-19T08:06:03.921Z,24.37
2018-05-19T08:08:31.466Z,26.90
2018-05-19T08:11:00.236Z,24.67
2018-05-19T08:13:28.747Z,32.67
2018-05-19T08:15:58.699Z,35.80
2018-05-19T08:18:28.070Z,24.70
2018-05-19T08:20:57.800Z,27.43
2018-05-19T08:23:26.423Z,29.63
2018-05-19T08:25:54.599Z,25.63
2018-05-19T08:28:23.533Z,27.00
2018-05-19T08:30:53.199Z,27.90
2018-05-19T08:33:22.737Z,28.63
2018-05-19T08:35:52.164Z,29.00
2018-05-19T08:38:22.788Z,23.33
2018-05-19T08:40:53.861Z,21.13
2018-05-19T08:43:24.109Z,26.23
2018-05-19T08:45:53.011Z,22.63
2018-05-19T08:48:22.861Z,21.93
2018-05-19T08:50:54.054Z,21.13
2018-05-19T08:53:22.282Z,30.37
2018-05-19T08:55:52.778Z,25.27
2018-05-19T08:58:22.438Z,23.53
2018-05-19T09:00:50.418Z,24.73
2018-05-19T09:03:18.567Z,23.33
2018-05-19T09:05:47.422Z,25.80
2018-05-19T09:08:17.678Z,28.80
2018-05-19T09:10:47.917Z,24.77
2018-05-19T09:13:16.078Z,22.30
2018-05-19T09:15:44.938Z,29.20
2018-05-19T09:18:15.189Z,26.87
2018-05-19T09:20:44.113Z,22.00
2018-05-19T09:23:12.333Z,25.53
2018-05-19T09:25:40.435Z,26.50
2018-05-19T09:28:08.546Z,21.70
2018-05-19T09:30:38.495Z,18.30
2018-05-19T09:33:08.247Z,25.20
2018-05-19T09:35:36.832Z,24.17
2018-05-19T09:38:05.952Z,27.67
2018-05-19T09:40:34.802Z,22.00
2018-05-19T09:43:03.558Z,25.07
2018-05-19T09:45:33.407Z,23.23
2018-05-19T09:48:01.843Z,24.80
2018-05-19T09:50:32.873Z,21.80
2018-05-19T09:53:02.785Z,26.03
2018-05-19T09:55:31.390Z,22.50
2018-05-19T09:58:00.348Z,26.57
2018-05-19T10:00:28.017Z,21.13
2018-05-19T10:02:58.494Z,21.00
2018-05-19T10:05:27.225Z,22.50
2018-05-19T10:17:41.348Z,27.80
2018-05-19T10:20:11.264Z,18.90
2018-05-19T10:22:40.644Z,25.17
2018-05-19T10:25:08.850Z,19.60
2018-05-19T10:27:39.693Z,22.97
2018-05-19T10:30:09.147Z,22.63
2018-05-19T10:32:38.633Z,20.57
2018-05-19T10:35:08.133Z,21.10
2018-05-19T10:37:37.025Z,24.50
2018-05-19T10:40:05.367Z,19.40
2018-05-19T10:42:36.232Z,16.17
2018-05-19T10:45:05.202Z,21.80
2018-05-19T10:47:34.116Z,17.90
2018-05-19T10:50:02.954Z,22.00
2018-05-19T10:52:33.026Z,17.83
2018-05-19T10:55:03.118Z,19.17
2018-05-19T10:57:33.165Z,26.03
2018-05-19T11:00:01.815Z,23.60
2018-05-19T11:02:30.939Z,20.73
2018-05-19T11:05:01.150Z,19.13
2018-05-19T11:07:30.096Z,15.83
2018-05-19T11:09:59.748Z,20.83
2018-05-19T11:12:28.077Z,16.63
2018-05-19T11:14:56.625Z,26.57
2018-05-19T11:17:26.790Z,19.47
2018-05-19T11:19:56.086Z,23.40
2018-05-19T11:22:24.453Z,22.07
2018-05-19T11:24:53.771Z,19.40
2018-05-19T11:27:22.720Z,20.37
2018-05-19T11:29:52.631Z,17.50
2018-05-19T11:32:21.879Z,17.53
2018-05-19T11:34:51.222Z,15.50
2018-05-19T11:37:19.724Z,21.20
2018-05-19T11:39:49.787Z,23.60
2018-05-19T11:42:18.860Z,21.33
2018-05-19T11:44:48.979Z,15.60
2018-05-19T11:47:19.285Z,13.97
2018-05-19T11:49:47.599Z,11.60
2018-05-19T11:52:17.319Z,14.13
2018-05-19T11:54:46.212Z,10.87
2018-05-19T11:57:14.991Z,13.33
2018-05-19T11:59:44.198Z,16.93
2018-05-19T12:02:13.088Z,12.53
2018-05-19T12:04:42.562Z,14.73
2018-05-19T12:07:12.229Z,13.03
2018-05-19T12:09:42.344Z,16.50
2018-05-19T12:12:12.083Z,17.53
2018-05-19T12:14:42.284Z,36.13
2018-05-19T12:17:10.933Z,17.40
2018-05-19T12:19:40.040Z,17.40
2018-05-19T12:22:08.760Z,10.33
2018-05-19T12:24:37.954Z,12.13
2018-05-19T12:27:09.935Z,14.70
2018-05-19T12:29:40.755Z,13.67
2018-05-19T12:32:10.730Z,11.03
2018-05-19T12:34:41.124Z,15.97
2018-05-19T12:37:10.906Z,14.70
2018-05-19T12:39:40.466Z,12.00
2018-05-19T12:42:10.502Z,13.83
2018-05-19T12:44:40.484Z,11.77
2018-05-19T12:47:10.558Z,13.90
2018-05-19T12:49:39.805Z,19.13
2018-05-19T12:52:08.403Z,15.13
2018-05-19T12:54:37.908Z,19.67
2018-05-19T12:57:07.552Z,19.43
2018-05-19T12:59:36.602Z,17.90
2018-05-19T13:02:06.703Z,18.93
2018-05-19T13:04:35.736Z,13.30
2018-05-19T13:07:04.301Z,15.80
2018-05-19T13:09:33.641Z,15.70
2018-05-19T13:12:02.344Z,12.20
2018-05-19T13:14:33.071Z,13.70
2018-05-19T13:17:02.962Z,14.07
2018-05-19T13:19:31.659Z,16.27
2018-05-19T13:22:00.519Z,12.93
2018-05-19T13:24:31.295Z,37.47
2018-05-19T13:27:00.283Z,12.00
2018-05-19T13:29:29.871Z,9.77
2018-05-19T13:31:59.673Z,11.80
2018-05-19T13:34:29.444Z,7.40
2018-05-19T13:36:57.695Z,12.53
2018-05-19T13:39:27.618Z,51.30
2018-05-19T13:41:56.342Z,110.53
2018-05-19T13:44:26.362Z,13.80
2018-05-19T13:46:56.083Z,16.80
2018-05-19T13:49:25.274Z,11.43
2018-05-19T13:51:55.317Z,10.63
2018-05-19T13:54:25.725Z,9.10
2018-05-19T13:56:55.798Z,11.00
2018-05-19T13:59:24.580Z,11.07
2018-05-19T14:01:55.402Z,16.93
2018-05-19T14:04:24.265Z,14.40
2018-05-19T14:06:52.413Z,7.03
2018-05-19T14:09:21.228Z,7.60
2018-05-19T14:11:51.773Z,12.33
2018-05-19T14:14:20.991Z,13.23
2018-05-19T14:16:51.888Z,10.93
2018-05-19T14:19:20.950Z,11.00
2018-05-19T14:21:50.862Z,9.87
2018-05-19T14:24:20.619Z,11.33
2018-05-19T14:26:51.122Z,8.20
2018-05-19T14:29:20.507Z,9.90
2018-05-19T14:31:49.795Z,9.10
2018-05-19T14:34:19.621Z,10.17
2018-05-19T14:36:48.720Z,8.63
2018-05-19T14:39:18.174Z,7.70
2018-05-19T14:41:48.346Z,12.63
2018-05-19T14:44:16.735Z,9.33
2018-05-19T14:46:46.478Z,9.63
2018-05-19T14:49:16.642Z,6.80
2018-05-19T14:51:46.620Z,12.60
2018-05-19T14:54:16.484Z,13.30
2018-05-19T14:56:45.145Z,9.03
2018-05-19T14:59:14.523Z,8.20
2018-05-19T15:01:44.615Z,7.37
2018-05-19T15:04:14.500Z,7.60
2018-05-19T15:06:42.676Z,7.90
2018-05-19T15:09:12.090Z,8.47
2018-05-19T15:11:41.354Z,7.10
2018-05-19T15:14:11.909Z,9.27
2018-05-19T15:16:39.948Z,9.30
2018-05-19T15:19:09.774Z,6.43
2018-05-19T15:21:37.354Z,9.00
2018-05-19T15:24:04.875Z,9.50
2018-05-19T15:26:32.912Z,10.73
2018-05-19T15:29:01.070Z,8.30
2018-05-19T15:31:30.881Z,11.37
2018-05-19T15:33:59.072Z,8.93
2018-05-19T15:36:28.655Z,10.30
2018-05-19T15:38:58.378Z,11.40
2018-05-19T15:41:28.684Z,8.63
2018-05-19T15:43:57.986Z,11.77
2018-05-19T15:46:26.890Z,11.50
2018-05-19T15:48:55.271Z,10.70
2018-05-19T15:51:24.956Z,10.63
2018-05-19T15:53:54.061Z,8.30
2018-05-19T15:56:22.903Z,10.97
2018-05-19T15:58:51.343Z,8.10
2018-05-19T16:01:19.980Z,7.90
2018-05-19T16:03:50.814Z,9.03
2018-05-19T16:06:21.090Z,9.40
2018-05-19T16:08:49.225Z,7.37
2018-05-19T16:11:18.514Z,8.47
2018-05-19T16:13:49.165Z,10.60
2018-05-19T16:16:18.505Z,11.20
2018-05-19T16:18:50.426Z,8.00
2018-05-19T16:21:21.214Z,14.30
2018-05-19T16:23:50.376Z,9.00
2018-05-19T16:26:19.618Z,12.90
2018-05-19T16:28:51.726Z,17.80
2018-05-19T16:31:20.816Z,11.23
2018-05-19T16:33:51.232Z,9.60
2018-05-19T16:36:20.096Z,9.50
2018-05-19T16:38:48.874Z,7.13
2018-05-19T16:41:18.212Z,7.83
2018-05-19T16:43:47.839Z,8.30
2018-05-19T16:46:16.903Z,7.73
2018-05-19T16:48:46.829Z,8.10
2018-05-19T16:51:16.324Z,7.40
2018-05-19T16:53:46.089Z,9.60
2018-05-19T16:56:16.741Z,22.37
2018-05-19T16:58:47.434Z,7.77
2018-05-19T17:01:15.760Z,7.67
2018-05-19T17:03:45.061Z,7.33
2018-05-19T17:06:13.909Z,11.40
2018-05-19T17:08:42.762Z,11.70
2018-05-19T17:11:12.102Z,9.03
2018-05-19T17:13:42.574Z,8.90
2018-05-19T17:16:11.365Z,7.40
2018-05-19T17:18:40.398Z,12.17
2018-05-19T17:21:10.459Z,8.23
2018-05-19T17:23:38.742Z,8.20
2018-05-19T17:26:07.834Z,11.70
2018-05-19T17:28:37.355Z,7.33
2018-05-19T17:31:06.381Z,11.50
2018-05-19T17:33:35.501Z,7.97
2018-05-19T17:36:04.564Z,9.57
2018-05-19T17:38:33.216Z,13.10
2018-05-19T17:41:02.194Z,10.73
2018-05-19T17:43:31.365Z,9.23
2018-05-19T17:45:59.622Z,7.87
2018-05-19T17:48:29.558Z,9.90
2018-05-19T17:50:58.870Z,9.50
2018-05-19T17:53:29.204Z,10.40
2018-05-19T17:55:58.288Z,10.93
2018-05-19T17:58:27.570Z,7.33
2018-05-19T18:00:57.309Z,7.83
2018-05-19T18:03:30.808Z,8.13
2018-05-19T18:05:59.467Z,10.93
2018-05-19T18:08:28.678Z,10.80
2018-05-19T18:10:57.712Z,16.83
2018-05-19T18:13:29.418Z,10.37
2018-05-19T18:15:58.362Z,8.77
2018-05-19T18:18:29.824Z,8.93
2018-05-19T18:20:58.703Z,9.27
2018-05-19T18:23:27.897Z,8.43
2018-05-19T18:25:59.078Z,9.80
2018-05-19T18:28:28.115Z,9.50
2018-05-19T18:30:56.620Z,9.00
2018-05-19T18:33:25.954Z,12.20
2018-05-19T18:35:56.128Z,8.80
2018-05-19T18:38:24.853Z,10.80
2018-05-19T18:40:54.914Z,10.93
2018-05-19T18:43:24.925Z,8.00
2018-05-19T18:45:56.276Z,10.37
2018-05-19T18:48:25.908Z,14.60
2018-05-19T18:50:53.843Z,13.30
2018-05-19T18:53:22.302Z,12.30
2018-05-19T18:55:50.970Z,9.33
2018-05-19T18:58:19.992Z,8.23
2018-05-19T19:00:49.641Z,9.70
2018-05-19T19:03:19.953Z,9.37
2018-05-19T19:05:49.113Z,14.43
2018-05-19T19:08:18.163Z,9.20
2018-05-19T19:10:46.238Z,9.67
2018-05-19T19:13:16.708Z,10.37
2018-05-19T19:15:46.228Z,13.20
2018-05-19T19:27:55.188Z,17.00
2018-05-19T19:30:24.278Z,12.87
2018-05-19T19:32:52.186Z,9.30
2018-05-19T19:35:21.651Z,10.40
2018-05-19T19:37:50.837Z,11.13
2018-05-19T19:40:19.630Z,13.07
2018-05-19T19:42:48.618Z,13.43
2018-05-19T19:45:16.815Z,16.47
2018-05-19T19:47:46.108Z,12.30
2018-05-19T19:50:15.027Z,12.97
2018-05-19T19:52:44.312Z,15.23
2018-05-19T19:55:13.636Z,12.80
2018-05-19T19:57:42.916Z,20.23
2018-05-19T20:00:11.771Z,11.47
2018-05-19T20:02:41.874Z,10.00
2018-05-19T20:05:10.018Z,10.70
2018-05-19T20:07:38.836Z,11.00
2018-05-19T20:10:08.137Z,10.67
2018-05-19T20:12:42.622Z,12.87
2018-05-19T20:15:10.790Z,11.20
2018-05-19T20:17:39.908Z,10.60
2018-05-19T20:20:08.792Z,12.63
2018-05-19T20:22:37.937Z,9.77
2018-05-19T20:25:06.440Z,13.63
2018-05-19T20:27:35.341Z,12.10
2018-05-19T20:30:04.625Z,10.63
2018-05-19T20:32:33.745Z,10.90
2018-05-19T20:35:01.770Z,10.57
2018-05-19T20:37:32.316Z,10.50
2018-05-19T20:40:00.951Z,10.83
2018-05-19T20:42:29.724Z,11.90
2018-05-19T20:45:00.441Z,13.80
2018-05-19T20:47:28.541Z,11.57
2018-05-19T20:49:57.851Z,9.17
2018-05-19T20:52:26.494Z,12.93
2018-05-19T20:54:55.986Z,9.20
2018-05-19T20:57:26.142Z,9.53
2018-05-19T20:59:54.407Z,9.33
2018-05-19T21:02:22.887Z,12.57
2018-05-19T21:04:52.178Z,13.10
2018-05-19T21:07:21.082Z,10.33
2018-05-19T21:09:49.401Z,14.10
2018-05-19T21:12:18.248Z,11.40
2018-05-19T21:14:48.063Z,8.83
2018-05-19T21:17:16.440Z,16.43
2018-05-19T21:19:46.694Z,14.13
2018-05-19T21:22:15.538Z,10.60
2018-05-19T21:24:44.959Z,11.00
2018-05-19T21:27:15.537Z,10.60
2018-05-19T21:29:43.832Z,10.30
2018-05-19T21:32:12.462Z,10.07
2018-05-19T21:34:41.305Z,15.67
2018-05-19T21:37:10.124Z,14.97
2018-05-19T21:39:39.594Z,11.50
2018-05-19T21:42:09.034Z,11.50
2018-05-19T21:44:38.006Z,9.40
2018-05-19T21:47:06.199Z,12.70
2018-05-19T21:49:34.227Z,12.00
2018-05-19T21:52:04.302Z,12.10
2018-05-19T21:54:33.560Z,14.00
2018-05-19T21:57:03.858Z,13.87
2018-05-19T21:59:32.841Z,12.20
2018-05-19T22:02:01.609Z,12.20
2018-05-19T22:04:38.639Z,16.90
2018-05-19T22:07:08.046Z,10.80
2018-05-19T22:09:40.495Z,11.40
2018-05-19T22:12:09.901Z,11.20
2018-05-19T22:14:38.788Z,12.27
2018-05-19T22:17:08.832Z,12.30
2018-05-19T22:19:37.131Z,11.13
2018-05-19T22:22:07.254Z,11.33
2018-05-19T22:24:35.937Z,15.83
2018-05-19T22:27:04.933Z,11.67
2018-05-19T22:29:35.486Z,14.30
2018-05-19T22:32:04.484Z,12.07
2018-05-19T22:34:33.543Z,11.37
2018-05-19T22:37:02.466Z,12.23
2018-05-19T22:39:32.451Z,11.47
2018-05-19T22:42:00.766Z,12.40
2018-05-19T22:44:29.751Z,14.33
2018-05-19T22:46:58.957Z,13.97
2018-05-19T22:49:28.609Z,11.53
2018-05-19T22:51:57.300Z,9.80
2018-05-19T22:54:25.593Z,10.70
2018-05-19T22:56:55.015Z,10.73
2018-05-19T22:59:24.397Z,12.20
2018-05-19T23:01:52.855Z,15.23
2018-05-19T23:04:21.482Z,12.53
2018-05-19T23:06:51.735Z,10.43
2018-05-19T23:09:20.377Z,9.63
2018-05-19T23:11:49.860Z,11.97
2018-05-19T23:14:19.927Z,12.20
2018-05-19T23:16:49.103Z,13.63
2018-05-19T23:19:18.193Z,9.60
2018-05-19T23:21:46.929Z,11.80
2018-05-19T23:24:15.620Z,13.87
2018-05-19T23:26:44.624Z,12.03
2018-05-19T23:29:13.943Z,14.37
2018-05-19T23:31:43.101Z,11.53
2018-05-19T23:34:12.608Z,11.27
2018-05-19T23:36:41.258Z,10.53
2018-05-19T23:39:10.058Z,10.57
2018-05-19T23:41:38.651Z,10.80
2018-05-19T23:44:08.025Z,10.00
2018-05-19T23:46:36.771Z,8.43
2018-05-19T23:49:06.624Z,10.20
2018-05-19T23:51:34.205Z,8.90
2018-05-19T23:54:01.797Z,12.07
2018-05-19T23:56:29.344Z,9.00
2018-05-19T23:58:58.095Z,11.53
